Time;durP1;ratioP1;P1;durP2;ratioP2;P2;SDS_P1;SDS_P2;PMS_P1;PMS_P2;Temp;Humidity;BMP_temperature;BMP_pressure;BME280_temperature;BME280_humidity;BME280_pressure;Samples;Min_cycle;Max_cycle;Signal;HPM_P1;HPM_P2
2022/03/08 00:00:19;;;;;;;8.00;7.07;;;1.70;1.00;2.40;101358.00;;;;5000595;28;20822;-78
2022/03/08 00:02:48;;;;;;;8.07;7.23;;;1.70;1.00;2.50;101356.00;;;;5000159;28;20444;-78
2022/03/08 00:05:19;;;;;;;8.23;7.10;;;1.80;1.00;2.40;101367.00;;;;4998918;28;20494;-77
2022/03/08 00:07:48;;;;;;;8.40;7.50;;;1.80;1.00;2.20;101355.00;;;;5001646;28;20449;-77
2022/03/08 00:10:17;;;;;;;11.20;9.33;;;2.20;1.00;2.20;101358.00;;;;4996616;28;20545;-78
2022/03/08 00:12:47;;;;;;;7.27;6.57;;;1.70;1.00;2.30;101333.00;;;;4999377;28;20453;-78
2022/03/08 00:15:19;;;;;;;9.00;7.40;;;1.70;1.00;2.30;101346.00;;;;4996705;28;20535;-76
2022/03/08 00:17:48;;;;;;;7.70;6.90;;;1.70;1.00;2.20;101360.00;;;;4995226;28;20550;-77
2022/03/08 00:20:18;;;;;;;9.57;7.67;;;1.70;1.00;2.20;101352.00;;;;4995952;28;20569;-77
2022/03/08 00:22:48;;;;;;;9.77;7.30;;;1.60;1.00;2.30;101339.00;;;;5004434;28;21585;-76
2022/03/08 00:25:17;;;;;;;9.17;7.67;;;1.60;1.00;2.40;101349.00;;;;4993009;28;20486;-75
2022/03/08 00:27:47;;;;;;;8.60;7.77;;;1.70;1.00;2.30;101365.00;;;;4984025;28;20481;-75
2022/03/08 00:30:19;;;;;;;8.83;7.80;;;1.70;1.00;2.10;101352.00;;;;5000816;28;20477;-77
2022/03/08 00:32:48;;;;;;;9.30;7.90;;;1.60;1.00;2.10;101324.00;;;;4994298;28;20462;-77
2022/03/08 00:35:18;;;;;;;8.80;7.43;;;1.50;1.00;2.20;101339.00;;;;5010041;28;20474;-76
2022/03/08 00:37:49;;;;;;;9.43;8.07;;;1.60;1.00;2.10;101347.00;;;;5012025;28;20442;-76
2022/03/08 00:40:20;;;;;;;11.67;8.00;;;1.60;1.00;2.30;101333.00;;;;4985470;28;20583;-76
2022/03/08 00:42:50;;;;;;;10.43;8.57;;;1.60;1.00;2.20;101350.00;;;;4993449;28;20576;-77
2022/03/08 00:45:19;;;;;;;12.30;8.87;;;1.60;1.00;2.20;101332.00;;;;4994891;28;20858;-76
2022/03/08 00:47:47;;;;;;;9.53;8.53;;;1.60;1.00;2.30;101329.00;;;;5011159;28;20825;-76
2022/03/08 00:50:19;;;;;;;9.57;8.00;;;1.60;1.00;2.30;101299.00;;;;4993127;28;20701;-76
2022/03/08 00:52:49;;;;;;;9.53;8.50;;;1.60;1.00;2.20;101332.00;;;;4994473;28;20458;-77
2022/03/08 00:55:19;;;;;;;10.37;8.93;;;1.60;1.00;2.00;101306.00;;;;4996813;28;20482;-77
2022/03/08 00:57:48;;;;;;;11.90;8.77;;;1.50;1.00;2.00;101289.00;;;;5014543;28;20572;-76
2022/03/08 01:00:20;;;;;;;10.70;8.70;;;1.50;1.00;2.00;101322.00;;;;5007393;28;20466;-77
2022/03/08 01:02:49;;;;;;;8.57;7.67;;;1.50;1.00;2.00;101331.00;;;;5017383;28;20469;-77
2022/03/08 01:05:20;;;;;;;10.50;8.03;;;1.40;1.00;2.00;101315.00;;;;5006519;28;20562;-77
2022/03/08 01:07:51;;;;;;;8.30;7.50;;;1.40;1.00;2.10;101279.00;;;;5016332;28;20447;-77
2022/03/08 01:10:22;;;;;;;8.23;7.43;;;1.70;1.00;2.10;101315.00;;;;5015670;28;20499;-77
2022/03/08 01:12:55;;;;;;;7.90;7.10;;;1.50;1.00;2.10;101310.00;;;;5018019;28;20451;-77
2022/03/08 01:15:26;;;;;;;9.60;7.90;;;1.50;1.00;2.00;101311.00;;;;5004218;28;20541;-75
2022/03/08 01:17:56;;;;;;;8.40;7.60;;;1.50;1.00;2.00;101308.00;;;;4997252;28;20451;-75
2022/03/08 01:20:26;;;;;;;9.60;8.07;;;1.40;1.00;2.00;101302.00;;;;4994106;28;20470;-76
2022/03/08 01:22:55;;;;;;;10.80;9.00;;;1.40;1.00;1.90;101307.00;;;;5011780;28;20462;-75
2022/03/08 01:25:25;;;;;;;10.47;7.83;;;1.40;1.00;2.00;66675.00;;;;5007653;28;20466;-75
2022/03/08 01:27:55;;;;;;;9.43;8.53;;;1.40;1.00;2.10;101279.00;;;;5023310;28;20480;-75
2022/03/08 01:30:26;;;;;;;9.33;8.17;;;1.40;1.00;2.00;101292.00;;;;5017827;28;20467;-75
2022/03/08 01:32:55;;;;;;;10.07;7.67;;;1.40;1.00;2.10;101295.00;;;;5034634;28;20430;-75
2022/03/08 01:35:26;;;;;;;9.77;8.30;;;1.40;1.00;1.90;101289.00;;;;5016532;28;20483;-74
2022/03/08 01:37:54;;;;;;;10.40;8.00;;;1.40;1.00;1.80;101266.00;;;;5034749;28;20473;-74
2022/03/08 01:40:23;;;;;;;7.73;6.73;;;1.30;1.00;1.90;101296.00;;;;5020103;28;20542;-75
2022/03/08 01:42:53;;;;;;;8.87;7.97;;;1.30;1.00;1.80;101299.00;;;;5015746;28;20464;-75
2022/03/08 01:45:23;;;;;;;11.37;7.97;;;1.30;1.00;1.90;101279.00;;;;5011161;28;20458;-75
2022/03/08 01:47:53;;;;;;;9.87;8.17;;;1.30;1.00;1.90;101279.00;;;;5035654;28;20457;-77
2022/03/08 01:50:22;;;;;;;9.90;8.23;;;1.40;1.00;1.90;101276.00;;;;5017535;28;20489;-77
2022/03/08 01:52:53;;;;;;;9.70;8.37;;;1.30;1.00;1.90;101287.00;;;;5036914;28;20462;-77
2022/03/08 01:55:22;;;;;;;10.77;8.70;;;1.30;1.00;2.00;101274.00;;;;5014700;28;20467;-76
2022/03/08 01:57:53;;;;;;;10.07;8.30;;;1.40;1.00;1.90;101271.00;;;;5024618;28;20449;-77
2022/03/08 02:00:25;;;;;;;11.97;9.13;;;1.30;1.00;2.00;101290.00;;;;5031286;28;20554;-77
2022/03/08 02:02:54;;;;;;;13.83;8.93;;;1.30;1.00;2.00;101272.00;;;;5011674;28;20504;-77
2022/03/08 02:05:25;;;;;;;11.73;9.30;;;1.30;1.00;1.80;101272.00;;;;5002034;28;20575;-78
2022/03/08 02:07:55;;;;;;;9.50;8.30;;;1.30;1.00;1.70;101240.00;;;;5000803;28;20449;-77
2022/03/08 02:10:24;;;;;;;9.13;8.13;;;1.20;1.00;1.70;101261.00;;;;5002376;28;20449;-78
2022/03/08 02:12:54;;;;;;;10.33;8.93;;;1.10;1.00;1.60;101262.00;;;;5003656;28;20475;-78
2022/03/08 02:15:26;;;;;;;12.60;9.33;;;1.10;1.00;1.70;101262.00;;;;5004376;28;20569;-78
2022/03/08 02:17:58;;;;;;;13.37;9.30;;;1.00;1.00;1.50;101264.00;;;;4996358;28;20465;-77
2022/03/08 02:20:26;;;;;;;11.30;9.40;;;1.00;1.00;1.70;101245.00;;;;4996595;28;20457;-77
2022/03/08 02:22:57;;;;;;;10.77;9.57;;;1.00;1.00;1.50;66571.00;;;;4995096;28;20475;-78
2022/03/08 02:25:40;;;;;;;10.73;9.13;;;0.90;1.00;1.40;101205.00;;;;4997993;28;20480;-77
2022/03/08 02:28:09;;;;;;;10.13;9.10;;;0.90;1.00;1.50;101159.00;;;;5012069;28;20493;-78
2022/03/08 02:30:38;;;;;;;11.07;9.40;;;1.40;1.00;1.60;101147.00;;;;4994787;28;20466;-78
2022/03/08 02:33:09;;;;;;;10.57;9.47;;;0.90;1.00;1.60;101195.00;;;;4995162;28;20462;-77
2022/03/08 02:35:37;;;;;;;10.63;9.50;;;1.00;1.00;1.70;101136.00;;;;4994088;28;21471;-78
2022/03/08 02:38:08;;;;;;;12.40;9.13;;;1.00;1.00;1.60;101163.00;;;;4995129;28;20439;-78
2022/03/08 02:40:38;;;;;;;11.17;8.83;;;1.00;1.00;1.50;101140.00;;;;4996688;28;20490;-79
2022/03/08 02:43:10;;;;;;;11.30;8.80;;;0.90;1.00;1.50;101134.00;;;;4994607;28;20527;-77
2022/03/08 02:45:40;;;;;;;12.47;9.77;;;0.90;1.00;1.60;101144.00;;;;4996251;28;20861;-77
2022/03/08 02:48:11;;;;;;;10.93;9.07;;;0.90;1.00;1.60;101182.00;;;;4997234;28;20519;-77
2022/03/08 02:50:40;;;;;;;14.53;9.77;;;0.90;1.00;1.50;101113.00;;;;5004238;28;20482;-78
2022/03/08 02:53:10;;;;;;;11.43;9.13;;;0.90;1.00;1.50;101175.00;;;;4999336;28;20482;-77
2022/03/08 02:55:38;;;;;;;13.93;9.67;;;0.90;1.00;1.70;101139.00;;;;5014004;28;20597;-78
2022/03/08 02:58:07;;;;;;;9.97;8.83;;;0.90;1.00;1.80;101188.00;;;;5000781;28;20483;-77
2022/03/08 03:00:36;;;;;;;12.53;9.70;;;0.90;1.00;1.60;101185.00;;;;5015047;28;20471;-77
2022/03/08 03:03:06;;;;;;;11.43;7.97;;;0.90;1.00;1.60;101174.00;;;;4989259;28;20454;-78
2022/03/08 03:05:35;;;;;;;10.30;9.07;;;0.90;1.00;1.40;66566.00;;;;5005258;28;20490;-78
2022/03/08 03:08:05;;;;;;;13.43;9.60;;;0.90;1.00;1.50;101169.00;;;;4997491;28;20540;-78
2022/03/08 03:10:36;;;;;;;12.20;8.80;;;0.80;1.00;1.30;101144.00;;;;4990218;28;20465;-78
2022/03/08 03:13:04;;;;;;;12.50;9.73;;;0.80;1.00;1.30;101129.00;;;;4997128;28;20485;-78
2022/03/08 03:15:33;;;;;;;12.30;8.90;;;0.70;1.00;1.30;101131.00;;;;5001018;28;20470;-78
2022/03/08 03:18:01;;;;;;;10.70;8.60;;;0.70;1.00;1.30;66544.00;;;;5002494;28;20947;-78
2022/03/08 03:20:29;;;;;;;10.10;8.50;;;0.70;1.00;1.40;101155.00;;;;5000265;28;20465;-78
2022/03/08 03:22:58;;;;;;;12.60;10.37;;;0.80;1.00;1.40;101086.00;;;;5003518;28;20461;-78
2022/03/08 03:25:26;;;;;;;12.57;10.10;;;0.70;1.00;1.40;101096.00;;;;5002554;28;20479;-78
2022/03/08 03:27:56;;;;;;;10.40;9.30;;;0.90;1.00;1.40;101094.00;;;;5004155;28;20441;-77
2022/03/08 03:30:24;;;;;;;11.03;9.60;;;0.70;1.00;1.20;101078.00;;;;5012622;28;20454;-78
2022/03/08 03:32:52;;;;;;;14.30;9.10;;;0.70;1.00;1.20;101091.00;;;;5011222;28;20481;-78
2022/03/08 03:35:21;;;;;;;13.47;10.40;;;0.70;1.00;1.10;101084.00;;;;5036736;28;20997;-78
2022/03/08 03:37:49;;;;;;;11.93;10.13;;;0.60;1.00;1.00;101048.00;;;;5009990;28;20453;-78
2022/03/08 03:40:18;;;;;;;11.90;9.50;;;0.50;1.00;1.00;101138.00;;;;5012363;28;20460;-77
2022/03/08 03:42:47;;;;;;;11.27;10.17;;;0.50;1.00;1.00;101145.00;;;;5016856;28;20451;-78
2022/03/08 03:45:17;;;;;;;10.87;9.47;;;0.40;1.00;1.20;101069.00;;;;5031536;28;20470;-78
2022/03/08 03:47:45;;;;;;;13.23;10.57;;;0.50;1.00;1.00;101015.00;;;;5019052;28;20469;-78
2022/03/08 03:50:14;;;;;;;12.80;10.37;;;0.50;1.00;0.90;101044.00;;;;5024061;28;20450;-78
2022/03/08 03:52:42;;;;;;;15.13;11.33;;;0.40;1.00;0.90;101049.00;;;;5048747;28;20477;-80
2022/03/08 03:55:13;;;;;;;14.27;11.52;;;0.40;1.00;0.90;101073.00;;;;5020784;28;20483;-78
2022/03/08 03:57:43;;;;;;;12.20;10.90;;;0.30;1.00;0.80;101041.00;;;;5009053;28;20250;-78
2022/03/08 04:00:16;;;;;;;13.27;10.10;;;0.30;1.00;0.90;100993.00;;;;5020055;28;20211;-78
2022/03/08 04:02:45;;;;;;;15.40;12.40;;;0.20;1.00;0.70;100918.00;;;;5007934;28;20466;-78
2022/03/08 04:05:14;;;;;;;13.27;11.40;;;0.20;1.00;0.70;100942.00;;;;5000606;28;20478;-78
2022/03/08 04:07:42;;;;;;;16.73;10.50;;;0.20;1.00;0.70;100904.00;;;;5003133;28;20451;-78
2022/03/08 04:10:13;;;;;;;14.13;10.60;;;0.10;1.00;0.60;100924.00;;;;5011590;28;20455;-78
2022/03/08 04:12:42;;;;;;;12.80;11.10;;;0.10;1.00;0.60;100966.00;;;;5003298;28;21032;-78
2022/03/08 04:15:11;;;;;;;15.23;10.63;;;0.10;1.00;0.60;100972.00;;;;4997405;28;20481;-78
2022/03/08 04:17:41;;;;;;;14.60;11.20;;;0.10;1.00;0.70;100954.00;;;;4998192;28;20956;-78
2022/03/08 04:20:11;;;;;;;11.70;10.40;;;0.10;1.00;0.60;100997.00;;;;4996956;28;20472;-78
2022/03/08 04:22:40;;;;;;;12.03;10.37;;;0.10;1.00;0.60;101054.00;;;;4997103;28;20462;-78
2022/03/08 04:25:10;;;;;;;12.33;9.83;;;0.10;1.00;0.60;101077.00;;;;4997678;28;20483;-78
2022/03/08 04:27:39;;;;;;;11.63;10.10;;;0.00;1.00;0.70;101028.00;;;;4998100;28;20541;-78
2022/03/08 04:30:10;;;;;;;10.17;9.07;;;0.10;1.00;0.80;101004.00;;;;5000078;28;20450;-78
2022/03/08 04:32:38;;;;;;;12.73;10.43;;;0.20;1.00;0.70;100977.00;;;;5015188;28;20481;-78
2022/03/08 04:35:09;;;;;;;11.30;9.80;;;0.10;1.00;0.70;100916.00;;;;4994107;28;20497;-78
2022/03/08 04:37:38;;;;;;;13.20;10.40;;;0.10;1.00;0.60;100966.00;;;;4995815;28;20454;-79
2022/03/08 04:40:09;;;;;;;12.97;10.37;;;0.10;1.00;0.60;100971.00;;;;4995082;28;20449;-79
2022/03/08 04:42:37;;;;;;;16.77;11.13;;;0.10;1.00;0.60;100944.00;;;;5004222;28;20455;-79
2022/03/08 04:45:07;;;;;;;14.53;10.87;;;0.10;1.00;0.60;66384.00;;;;4997426;28;20513;-78
2022/03/08 04:47:36;;;;;;;10.43;9.00;;;0.10;1.00;0.80;100960.00;;;;4997470;28;20475;-78
2022/03/08 04:50:08;;;;;;;14.00;10.60;;;0.10;1.00;0.70;100963.00;;;;4992682;28;20461;-76
2022/03/08 04:52:38;;;;;;;16.17;11.90;;;0.10;1.00;0.60;100927.00;;;;5007979;28;20478;-76
2022/03/08 04:55:07;;;;;;;11.20;9.60;;;0.00;1.00;0.70;100934.00;;;;4994577;28;21101;-77
2022/03/08 04:57:36;;;;;;;13.93;10.60;;;0.10;1.00;0.60;100953.00;;;;4992437;28;20462;-78
2022/03/08 05:00:07;;;;;;;18.43;12.83;;;0.10;1.00;0.60;66378.00;;;;4997950;28;20459;-76
2022/03/08 05:02:36;;;;;;;14.90;12.17;;;0.00;1.00;52.70;156883.00;;;;4996467;28;20454;-76
2022/03/08 05:05:05;;;;;;;16.70;12.00;;;0.00;1.00;0.50;100930.00;;;;5002559;28;20467;-76
2022/03/08 05:07:35;;;;;;;17.13;11.73;;;0.00;1.00;0.50;100953.00;;;;5006638;28;21018;-77
2022/03/08 05:10:03;;;;;;;12.70;11.03;;;0.00;1.00;0.50;100718.00;;;;5001832;28;20457;-79
2022/03/08 05:12:32;;;;;;;13.07;11.23;;;0.20;1.00;0.50;66381.00;;;;4997288;28;20550;-78
2022/03/08 05:15:01;;;;;;;14.80;11.30;;;0.00;1.00;0.50;100931.00;;;;4997724;28;21094;-78
2022/03/08 05:17:30;;;;;;;15.47;11.37;;;0.30;1.00;0.50;100947.00;;;;4998140;28;20473;-77
2022/03/08 05:20:02;;;;;;;15.73;11.30;;;0.00;1.00;0.50;100925.00;;;;4995925;28;21013;-77
2022/03/08 05:22:30;;;;;;;17.73;12.03;;;0.00;1.00;0.60;100934.00;;;;5012075;28;20461;-78
2022/03/08 05:25:00;;;;;;;14.80;10.93;;;0.00;1.00;0.60;100957.00;;;;5004213;28;21352;-78
2022/03/08 05:27:28;;;;;;;12.53;10.63;;;0.00;1.00;0.60;100923.00;;;;4988236;28;20490;-78
2022/03/08 05:29:56;;;;;;;13.30;10.87;;;0.00;1.00;0.50;100956.00;;;;4994804;28;20516;-78
2022/03/08 05:32:26;;;;;;;16.57;11.50;;;0.00;1.00;0.60;66371.00;;;;5006147;28;20463;-78
2022/03/08 05:34:57;;;;;;;20.70;12.87;;;0.10;1.00;0.50;100961.00;;;;5011859;28;20501;-77
2022/03/08 05:37:25;;;;;;;14.07;10.37;;;0.10;1.00;0.50;100959.00;;;;4998856;28;20481;-77
2022/03/08 05:39:54;;;;;;;20.83;12.50;;;0.00;1.00;0.50;100935.00;;;;5000476;28;20489;-78
2022/03/08 05:42:26;;;;;;;19.40;12.93;;;0.00;1.00;52.70;156827.00;;;;4993543;28;20544;-78
2022/03/08 05:44:54;;;;;;;19.83;13.03;;;-0.10;1.00;52.70;156694.00;;;;4997183;28;20489;-77
2022/03/08 05:47:23;;;;;;;19.13;13.10;;;-0.10;1.00;0.50;100976.00;;;;4997305;28;20512;-78
2022/03/08 05:49:51;;;;;;;15.63;10.63;;;-0.10;1.00;0.50;100971.00;;;;4999305;28;20684;-77
2022/03/08 05:52:19;;;;;;;15.43;10.73;;;0.00;1.00;0.60;100936.00;;;;4994261;28;20446;-78
2022/03/08 05:54:48;;;;;;;11.23;9.70;;;0.00;1.00;0.60;100976.00;;;;4991485;28;21532;-78
2022/03/08 05:57:16;;;;;;;15.17;10.63;;;0.10;1.00;0.60;100975.00;;;;4993192;28;20476;-77
2022/03/08 05:59:49;;;;;;;12.17;9.53;;;0.10;1.00;0.50;100994.00;;;;4994438;28;21270;-77
2022/03/08 06:02:18;;;;;;;18.60;11.80;;;0.50;1.00;0.70;100951.00;;;;4987634;28;20454;-77
2022/03/08 06:04:47;;;;;;;16.23;11.50;;;0.10;1.00;0.70;100974.00;;;;4995388;28;20455;-77
2022/03/08 06:07:15;;;;;;;12.73;10.13;;;0.10;1.00;217.30;156996.00;;;;4994246;28;20490;-78
2022/03/08 06:09:44;;;;;;;16.03;11.40;;;0.50;1.00;0.80;100983.00;;;;4996253;28;20951;-78
2022/03/08 06:12:13;;;;;;;18.60;12.83;;;0.20;1.00;0.90;100980.00;;;;4987871;28;20466;-78
2022/03/08 06:14:42;;;;;;;17.00;11.20;;;0.30;1.00;0.90;100987.00;;;;5004626;28;20478;-78
2022/03/08 06:17:11;;;;;;;19.70;11.80;;;0.30;1.00;1.00;100965.00;;;;5002233;28;20460;-77
2022/03/08 06:19:40;;;;;;;20.90;12.40;;;0.40;1.00;1.20;100981.00;;;;5013103;28;20478;-78
2022/03/08 06:22:08;;;;;;;16.07;10.53;;;0.50;1.00;1.20;101002.00;;;;5007963;28;20489;-79
2022/03/08 06:24:37;;;;;;;15.27;10.30;;;1.00;1.00;1.30;100983.00;;;;5012725;28;20502;-79
2022/03/08 06:27:05;;;;;;;13.13;10.80;;;0.60;1.00;1.40;100984.00;;;;5011207;28;20486;-79
2022/03/08 06:29:34;;;;;;;15.47;11.67;;;0.70;1.00;1.50;100958.00;;;;5031533;28;20587;-77
2022/03/08 06:32:02;;;;;;;18.23;12.07;;;0.40;1.00;1.60;100986.00;;;;5008247;28;20463;-78
2022/03/08 06:34:32;;;;;;;19.80;11.50;;;0.90;1.00;1.60;100968.00;;;;5023197;28;20486;-78
2022/03/08 06:37:00;;;;;;;15.50;11.43;;;1.00;1.00;1.70;100996.00;;;;5022826;28;20538;-78
2022/03/08 06:39:29;;;;;;;11.80;10.00;;;1.10;1.00;2.10;101005.00;;;;5003880;28;20977;-77
2022/03/08 06:41:58;;;;;;;14.97;9.70;;;1.20;1.00;2.20;101014.00;;;;5004839;28;20861;-78
2022/03/08 06:44:26;;;;;;;11.93;10.00;;;1.40;1.00;2.30;101021.00;;;;4997296;28;20472;-78
2022/03/08 06:46:55;;;;;;;17.13;10.27;;;1.50;1.00;2.40;100992.00;;;;4990595;28;20515;-78
2022/03/08 06:49:23;;;;;;;16.67;11.57;;;1.70;1.00;2.30;100975.00;;;;5012875;28;20454;-77
2022/03/08 06:51:53;;;;;;;12.40;10.10;;;1.70;1.00;2.60;101023.00;;;;4998572;28;20457;-78
2022/03/08 06:54:21;;;;;;;13.00;10.20;;;2.20;1.00;2.70;66847.00;;;;5005689;28;20490;-78
2022/03/08 06:56:49;;;;;;;12.50;10.07;;;1.90;1.00;2.70;101026.00;;;;4996650;28;20529;-78
2022/03/08 06:59:18;;;;;;;16.80;10.50;;;2.00;1.00;2.60;100990.00;;;;4997153;28;20943;-78
2022/03/08 07:01:46;;;;;;;12.83;9.70;;;2.00;1.00;52.70;157844.00;;;;4987928;28;20450;-78
2022/03/08 07:04:15;;;;;;;14.70;10.70;;;2.10;1.00;2.90;101059.00;;;;5004118;28;21154;-78
2022/03/08 07:06:49;;;;;;;15.13;10.30;;;2.20;1.00;2.90;101043.00;;;;5009533;28;20485;-77
2022/03/08 07:09:19;;;;;;;11.60;10.20;;;2.30;1.00;3.00;101028.00;;;;4998746;28;20465;-81
2022/03/08 07:11:47;;;;;;;15.43;10.57;;;2.40;1.00;3.10;101043.00;;;;5023252;28;20465;-77
2022/03/08 07:14:17;;;;;;;16.90;10.20;;;2.40;1.00;3.10;101016.00;;;;5018491;28;20674;-78
2022/03/08 07:16:47;;;;;;;15.87;10.20;;;2.40;1.00;3.30;101033.00;;;;5034601;28;20492;-78
2022/03/08 07:19:16;;;;;;;13.20;10.10;;;2.60;1.00;3.40;101016.00;;;;5014118;28;20505;-78
2022/03/08 07:21:45;;;;;;;13.50;9.63;;;2.70;1.00;3.50;101013.00;;;;5000993;28;20533;-77
2022/03/08 07:24:15;;;;;;;11.93;9.27;;;3.10;1.00;3.40;101078.00;;;;5017047;28;20513;-77
2022/03/08 07:26:45;;;;;;;14.33;10.07;;;3.20;1.00;3.50;101040.00;;;;4994334;28;20633;-79
2022/03/08 07:29:14;;;;;;;12.00;9.93;;;2.90;1.00;3.50;101054.00;;;;5012822;28;20489;-77
2022/03/08 07:31:42;;;;;;;12.10;9.13;;;2.90;1.00;3.60;101033.00;;;;4998501;28;20641;-78
2022/03/08 07:34:11;;;;;;;12.50;10.57;;;3.20;1.00;3.80;101029.00;;;;4995281;28;21190;-77
2022/03/08 07:36:39;;;;;;;12.53;8.70;;;3.10;1.00;3.80;101013.00;;;;4996489;28;20488;-78
2022/03/08 07:39:07;;;;;;;14.07;10.40;;;3.20;1.00;3.90;101032.00;;;;4998271;28;20457;-77
2022/03/08 07:41:36;;;;;;;11.10;8.80;;;3.30;1.00;3.90;101040.00;;;;5004129;28;20817;-78
2022/03/08 07:44:06;;;;;;;12.90;9.30;;;3.80;1.00;3.90;101022.00;;;;4993051;28;20573;-78
2022/03/08 07:46:34;;;;;;;14.73;10.63;;;3.40;1.00;3.90;101025.00;;;;4998422;28;20482;-78
2022/03/08 07:49:03;;;;;;;10.03;9.03;;;3.40;1.00;3.90;101055.00;;;;4988156;28;20459;-79
2022/03/08 07:51:49;;;;;;;13.93;8.37;;;3.40;1.00;4.20;101035.00;;;;4998391;28;20465;-79
2022/03/08 07:54:19;;;;;;;12.40;10.57;;;3.60;1.00;4.30;101005.00;;;;5010670;28;20488;-79
2022/03/08 07:56:47;;;;;;;11.83;10.10;;;4.10;1.00;4.20;101020.00;;;;5015631;28;20494;-79
2022/03/08 07:59:17;;;;;;;16.30;9.60;;;3.70;1.00;4.40;101015.00;;;;5015520;28;20628;-78
2022/03/08 08:01:46;;;;;;;9.60;8.60;;;3.90;1.00;4.30;101043.00;;;;5018171;28;20521;-78
2022/03/08 08:04:14;;;;;;;13.40;8.70;;;3.90;1.00;4.30;101064.00;;;;5021847;28;20450;-79
2022/03/08 08:06:43;;;;;;;13.27;9.50;;;3.90;1.00;4.50;101028.00;;;;5009340;28;20772;-78
2022/03/08 08:09:12;;;;;;;10.00;8.47;;;3.90;1.00;4.50;101026.00;;;;5001746;28;20457;-79
2022/03/08 08:11:41;;;;;;;9.33;8.43;;;4.00;1.00;4.60;101049.00;;;;4993645;28;20445;-80
2022/03/08 08:14:09;;;;;;;12.20;11.00;;;4.10;1.00;4.60;101025.00;;;;5002058;28;20457;-78
2022/03/08 08:16:39;;;;;;;11.17;9.00;;;4.20;1.00;4.80;101021.00;;;;5003464;28;20475;-79
2022/03/08 08:19:08;;;;;;;10.30;8.90;;;4.30;1.00;5.00;101061.00;;;;4998177;28;20528;-79
2022/03/08 08:21:36;;;;;;;10.90;9.47;;;4.50;1.00;5.10;101037.00;;;;5000475;28;20540;-78
2022/03/08 08:24:05;;;;;;;11.90;9.97;;;4.60;1.00;5.00;101045.00;;;;5013839;28;20462;-78
2022/03/08 08:26:34;;;;;;;10.20;8.87;;;4.60;1.00;4.90;101056.00;;;;5003010;28;20923;-79
2022/03/08 08:29:02;;;;;;;11.87;10.50;;;4.50;1.00;5.10;101068.00;;;;5002072;28;20455;-79
2022/03/08 08:31:32;;;;;;;12.30;9.83;;;4.60;1.00;5.20;101041.00;;;;5004986;28;20453;-80
2022/03/08 08:34:02;;;;;;;15.10;9.23;;;4.70;1.00;5.20;101040.00;;;;5001164;28;20446;-79
2022/03/08 08:36:30;;;;;;;13.43;10.23;;;4.80;1.00;5.30;101058.00;;;;5009256;28;20470;-79
2022/03/08 08:38:59;;;;;;;11.33;8.30;;;4.80;1.00;5.40;101023.00;;;;5000785;28;20476;-79
2022/03/08 08:41:27;;;;;;;10.10;9.07;;;4.80;1.00;5.40;101052.00;;;;5000734;28;20542;-79
2022/03/08 08:43:56;;;;;;;10.30;9.13;;;5.00;1.00;5.60;101045.00;;;;5015787;28;20454;-79
2022/03/08 08:46:24;;;;;;;10.50;9.40;;;5.20;1.00;5.80;101061.00;;;;4999181;28;20494;-79
2022/03/08 08:48:53;;;;;;;12.87;9.87;;;5.30;1.00;5.80;101058.00;;;;5008282;28;20502;-79
2022/03/08 08:51:23;;;;;;;10.33;8.80;;;5.40;1.00;5.70;101036.00;;;;5001915;28;20464;-81
2022/03/08 08:53:51;;;;;;;10.00;9.00;;;5.50;1.00;5.80;101057.00;;;;4999776;28;20469;-79
2022/03/08 08:56:20;;;;;;;12.03;10.47;;;5.40;1.00;6.00;101036.00;;;;5018573;28;20493;-80
2022/03/08 08:58:48;;;;;;;10.00;9.00;;;5.60;1.00;6.10;101048.00;;;;5000286;28;20472;-80
2022/03/08 09:01:17;;;;;;;14.20;10.20;;;5.60;1.00;6.20;101047.00;;;;5005359;28;20831;-80
2022/03/08 09:03:45;;;;;;;12.03;9.87;;;6.10;1.00;6.10;101039.00;;;;4999213;28;20953;-80
2022/03/08 09:06:14;;;;;;;11.77;9.70;;;5.70;1.00;6.10;101051.00;;;;5009897;28;20481;-80
2022/03/08 09:08:44;;;;;;;11.83;9.87;;;5.70;1.00;6.10;101052.00;;;;5006395;28;20461;-81
2022/03/08 09:11:13;;;;;;;16.90;10.60;;;5.80;1.00;6.20;101019.00;;;;5023781;28;20501;-82
2022/03/08 09:13:42;;;;;;;13.57;10.57;;;5.80;1.00;6.40;101054.00;;;;5021558;28;20447;-79
2022/03/08 09:16:14;;;;;;;12.60;9.90;;;6.00;1.00;6.40;101055.00;;;;5022431;28;20479;-80
2022/03/08 09:18:43;;;;;;;10.60;9.10;;;6.00;1.00;6.50;101042.00;;;;5011391;28;20466;-81
2022/03/08 09:21:13;;;;;;;10.90;9.50;;;6.10;1.00;6.60;101034.00;;;;5019150;28;20477;-81
2022/03/08 09:23:42;;;;;;;11.00;9.80;;;6.20;1.00;6.70;101030.00;;;;5016970;28;20466;-81
2022/03/08 09:26:11;;;;;;;11.20;8.70;;;6.40;1.00;6.90;101022.00;;;;5030936;28;20474;-82
2022/03/08 09:28:40;;;;;;;9.70;8.70;;;6.50;1.00;6.90;101031.00;;;;5016978;28;20464;-81
2022/03/08 09:31:09;;;;;;;9.20;8.30;;;7.00;1.00;6.80;101006.00;;;;5036056;28;20527;-81
2022/03/08 09:33:38;;;;;;;11.70;9.23;;;6.50;1.00;6.80;101020.00;;;;5017350;28;20452;-81
2022/03/08 09:36:06;;;;;;;9.37;8.37;;;6.40;1.00;6.80;100999.00;;;;5027088;28;20509;-81
2022/03/08 09:38:35;;;;;;;9.77;8.80;;;6.50;1.00;6.90;101014.00;;;;5019282;28;20441;-81
2022/03/08 09:41:04;;;;;;;9.30;8.40;;;6.60;1.00;6.90;101016.00;;;;5017860;28;20442;-81
2022/03/08 09:43:37;;;;;;;11.13;9.20;;;6.60;1.00;7.00;100999.00;;;;5021098;28;20461;-81
2022/03/08 09:46:07;;;;;;;9.70;8.20;;;6.90;1.00;7.10;101026.00;;;;5021812;28;20458;-81
2022/03/08 09:48:35;;;;;;;12.30;8.30;;;6.80;1.00;7.30;100999.00;;;;5017436;28;20443;-81
2022/03/08 09:51:06;;;;;;;10.90;8.93;;;7.10;1.00;7.50;100997.00;;;;5021819;28;20537;-81
2022/03/08 09:53:36;;;;;;;11.93;8.27;;;7.20;1.00;7.60;100987.00;;;;5034621;28;20486;-81
2022/03/08 09:56:06;;;;;;;9.77;8.23;;;7.30;1.00;7.70;100953.00;;;;5019335;28;20479;-80
2022/03/08 09:58:35;;;;;;;8.93;6.57;;;7.70;1.00;7.90;100977.00;;;;5024269;28;20485;-81
2022/03/08 10:01:04;;;;;;;11.33;6.90;;;7.60;1.00;7.90;100898.00;;;;5028805;28;20441;-80
2022/03/08 10:03:36;;;;;;;10.13;7.90;;;7.70;1.00;8.00;100984.00;;;;5025922;28;20449;-80
2022/03/08 10:06:05;;;;;;;7.53;6.67;;;7.70;1.00;8.10;100912.00;;;;5028387;28;20488;-81
2022/03/08 10:08:34;;;;;;;10.23;7.40;;;7.80;1.00;8.30;100963.00;;;;5018816;28;20443;-79
2022/03/08 10:11:07;;;;;;;8.30;7.37;;;8.00;1.00;8.30;100960.00;;;;5027072;28;20463;-82
2022/03/08 10:13:49;;;;;;;7.80;7.00;;;8.00;1.00;8.40;100956.00;;;;5017364;28;20450;-80
2022/03/08 10:16:23;;;;;;;9.73;8.10;;;8.10;1.00;8.40;100960.00;;;;5021471;28;20466;-80
2022/03/08 10:18:54;;;;;;;9.03;7.50;;;8.20;1.00;8.50;100967.00;;;;5012890;28;20481;-80
2022/03/08 10:21:30;;;;;;;9.97;8.00;;;8.30;1.00;8.60;100983.00;;;;5021331;28;20463;-81
2022/03/08 10:24:02;;;;;;;10.43;7.63;;;8.30;1.00;8.70;101034.00;;;;5022233;28;20471;-79
2022/03/08 10:26:43;;;;;;;8.47;6.83;;;8.40;1.00;8.90;101035.00;;;;5024399;28;20497;-81
2022/03/08 10:29:11;;;;;;;9.67;7.77;;;8.60;1.00;8.90;100992.00;;;;5047233;28;20529;-81
2022/03/08 10:31:41;;;;;;;9.00;7.17;;;8.70;1.00;9.00;101063.00;;;;5045513;28;20430;-81
2022/03/08 10:34:16;;;;;;;8.10;6.77;;;8.80;1.00;9.10;101044.00;;;;5027218;28;20472;-77
2022/03/08 10:37:03;;;;;;;8.37;7.20;;;8.90;1.00;9.20;101087.00;;;;4997335;28;20465;-77
2022/03/08 10:39:32;;;;;;;13.33;8.60;;;9.00;1.00;9.30;101089.00;;;;5026389;28;20461;-77
2022/03/08 10:42:02;;;;;;;8.80;7.30;;;9.00;1.00;9.30;101128.00;;;;5004116;28;20462;-77
2022/03/08 10:44:39;;;;;;;10.23;8.27;;;9.00;1.00;9.30;101114.00;;;;5002951;28;20434;-78
2022/03/08 10:47:11;;;;;;;9.23;8.30;;;9.00;1.00;9.40;101117.00;;;;4997951;28;20924;-78
2022/03/08 10:49:51;;;;;;;10.20;7.10;;;9.20;1.00;9.50;101117.00;;;;4999113;28;20454;-78
2022/03/08 10:52:28;;;;;;;9.33;8.00;;;9.20;1.00;9.30;101111.00;;;;5002600;28;20461;-77
2022/03/08 10:55:08;;;;;;;7.43;6.37;;;9.10;1.00;9.20;101096.00;;;;5014014;28;20537;-78
2022/03/08 10:57:39;;;;;;;8.13;6.80;;;9.10;1.00;9.30;101089.00;;;;5016191;28;20500;-77
2022/03/08 11:00:20;;;;;;;10.80;7.10;;;9.00;1.00;9.50;101105.00;;;;5011155;28;20449;-79
2022/03/08 11:02:55;;;;;;;7.93;7.13;;;9.20;1.00;9.50;101086.00;;;;5031509;28;20486;-80
2022/03/08 11:05:26;;;;;;;10.00;7.10;;;9.20;1.00;9.40;101082.00;;;;5021835;28;20468;-81
2022/03/08 11:07:57;;;;;;;7.50;6.57;;;9.20;1.00;9.60;101083.00;;;;5017060;28;20458;-78
2022/03/08 11:10:27;;;;;;;7.50;6.50;;;9.30;1.00;9.60;101087.00;;;;5009228;28;20477;-79
2022/03/08 11:12:57;;;;;;;11.67;7.53;;;9.30;1.00;9.80;101080.00;;;;4998629;28;20465;-78